createdAt,value
2022-08-12T00:00:09.234Z,0
2022-08-12T00:01:10.989Z,0
2022-08-12T00:02:12.048Z,0
2022-08-12T00:03:13.208Z,0
2022-08-12T00:04:13.890Z,0
2022-08-12T00:05:15.075Z,0
2022-08-12T00:06:16.434Z,0
2022-08-12T00:07:17.657Z,0
2022-08-12T00:08:28.943Z,0
2022-08-12T00:09:24.316Z,0
2022-08-12T00:10:20.951Z,0
2022-08-12T00:11:22.192Z,0
2022-08-12T00:12:23.839Z,0
2022-08-12T00:13:24.531Z,0
2022-08-12T00:14:25.759Z,0
2022-08-12T00:15:27.600Z,0
2022-08-12T00:16:28.638Z,0
2022-08-12T00:17:29.374Z,0
2022-08-12T00:18:31.032Z,0
2022-08-12T00:19:31.957Z,0
2022-08-12T00:20:33.698Z,0
2022-08-12T00:22:05.717Z,0
2022-08-12T00:23:07.117Z,0
2022-08-12T00:24:08.044Z,0
2022-08-12T00:25:09.353Z,0
2022-08-12T00:26:23.156Z,0
2022-08-12T00:27:12.395Z,0
2022-08-12T00:28:14.848Z,0
2022-08-12T00:29:15.606Z,0
2022-08-12T00:30:17.546Z,0
2022-08-12T00:31:19.134Z,0
2022-08-12T00:32:35.427Z,0
2022-08-12T00:33:20.680Z,0
2022-08-12T00:34:21.424Z,0
2022-08-12T00:35:23.533Z,0
2022-08-12T00:36:35.204Z,0
2022-08-12T00:37:24.637Z,0
2022-08-12T00:38:26.181Z,0
2022-08-12T00:39:26.871Z,0
2022-08-12T00:40:27.667Z,0
2022-08-12T00:41:28.489Z,0
2022-08-12T00:42:29.172Z,0
2022-08-12T00:43:29.932Z,0
2022-08-12T00:44:30.657Z,0
2022-08-12T00:45:31.501Z,0
2022-08-12T00:46:32.293Z,0
2022-08-12T00:47:33.044Z,0
2022-08-12T00:49:04.951Z,0
2022-08-12T00:50:06.729Z,0
2022-08-12T00:51:07.511Z,0
2022-08-12T00:52:08.296Z,0
2022-08-12T00:53:08.970Z,0
2022-08-12T00:54:09.732Z,0
2022-08-12T00:55:11.440Z,0
2022-08-12T00:56:12.230Z,0
2022-08-12T00:57:13.010Z,0
2022-08-12T00:58:14.675Z,0
2022-08-12T00:59:15.444Z,0
2022-08-12T01:00:16.197Z,0
2022-08-12T01:01:17.718Z,0
2022-08-12T01:02:18.428Z,0
2022-08-12T01:03:19.078Z,0
2022-08-12T01:04:19.890Z,0
2022-08-12T01:05:20.645Z,0
2022-08-12T01:06:21.494Z,0
2022-08-12T01:07:22.253Z,0
2022-08-12T01:08:23.526Z,0
2022-08-12T01:09:24.283Z,0
2022-08-12T01:10:27.414Z,0
2022-08-12T01:11:25.873Z,0
2022-08-12T01:12:26.762Z,0
2022-08-12T01:13:27.405Z,0
2022-08-12T01:14:28.193Z,0
2022-08-12T01:15:29.282Z,0
2022-08-12T01:16:29.887Z,0
2022-08-12T01:17:30.649Z,0
2022-08-12T01:18:32.163Z,0
2022-08-12T01:19:32.957Z,0
2022-08-12T01:21:04.474Z,0
2022-08-12T01:22:05.322Z,0
2022-08-12T01:23:06.070Z,0
2022-08-12T01:24:29.972Z,0
2022-08-12T01:25:07.649Z,0
2022-08-12T01:26:09.181Z,0
2022-08-12T01:27:10.002Z,0
2022-08-12T01:28:11.652Z,0
2022-08-12T01:29:12.354Z,0
2022-08-12T01:30:13.170Z,0
2022-08-12T01:31:16.295Z,0
2022-08-12T01:32:14.717Z,0
2022-08-12T01:33:15.453Z,0
2022-08-12T01:34:33.410Z,0
2022-08-12T01:35:17.987Z,0
2022-08-12T01:36:18.775Z,0
2022-08-12T01:37:19.548Z,0
2022-08-12T01:38:21.150Z,0
2022-08-12T01:39:21.935Z,0
2022-08-12T01:40:34.588Z,0
2022-08-12T01:41:23.493Z,0
2022-08-12T01:42:24.281Z,0
2022-08-12T01:43:25.015Z,0
2022-08-12T01:44:25.733Z,0
2022-08-12T01:45:27.176Z,0
2022-08-12T01:46:27.960Z,0
2022-08-12T01:47:28.771Z,0
2022-08-12T01:48:30.172Z,0
2022-08-12T01:49:30.892Z,0
2022-08-12T01:50:31.685Z,0
2022-08-12T01:52:19.817Z,0
2022-08-12T01:53:04.047Z,0
2022-08-12T01:54:04.771Z,0
2022-08-12T01:55:05.461Z,0
2022-08-12T01:56:07.213Z,0
2022-08-12T01:57:08.050Z,0
2022-08-12T01:58:08.907Z,0
2022-08-12T01:59:12.352Z,0
2022-08-12T02:00:11.515Z,0
2022-08-12T02:01:13.272Z,0
2022-08-12T02:02:14.019Z,0
2022-08-12T02:03:14.858Z,0
2022-08-12T02:04:15.602Z,0
2022-08-12T02:05:16.305Z,0
2022-08-12T02:06:17.116Z,0
2022-08-12T02:07:17.901Z,0
2022-08-12T02:08:19.737Z,0
2022-08-12T02:09:20.469Z,0
2022-08-12T02:10:50.290Z,0
2022-08-12T02:11:21.923Z,0
2022-08-12T02:12:27.923Z,0
2022-08-12T02:13:42.115Z,0
2022-08-12T02:14:24.292Z,0
2022-08-12T02:15:25.039Z,0
2022-08-12T02:16:25.758Z,0
2022-08-12T02:17:55.687Z,0
2022-08-12T02:18:28.692Z,0
2022-08-12T02:19:29.480Z,0
2022-08-12T02:20:50.908Z,0
2022-08-12T02:21:31.045Z,0
2022-08-12T02:22:31.844Z,0
2022-08-12T02:23:33.023Z,0
2022-08-12T02:25:04.197Z,0
2022-08-12T02:26:05.658Z,0
2022-08-12T02:27:06.467Z,0
2022-08-12T02:28:07.973Z,0
2022-08-12T02:29:08.610Z,0
2022-08-12T02:30:09.340Z,0
2022-08-12T02:31:10.022Z,0
2022-08-12T02:32:10.785Z,0
2022-08-12T02:33:11.632Z,0
2022-08-12T02:34:12.411Z,0
2022-08-12T02:35:13.124Z,0
2022-08-12T02:36:13.763Z,0
2022-08-12T02:37:14.594Z,0
2022-08-12T02:38:15.243Z,0
2022-08-12T02:39:16.616Z,0
2022-08-12T02:40:17.369Z,0
2022-08-12T02:41:18.036Z,0
2022-08-12T02:42:18.742Z,0
2022-08-12T02:43:19.503Z,0
2022-08-12T02:44:20.336Z,0
2022-08-12T02:45:21.054Z,0
2022-08-12T02:46:21.747Z,0
2022-08-12T02:47:59.261Z,0
2022-08-12T02:48:23.180Z,0
2022-08-12T02:49:24.604Z,0
2022-08-12T02:50:25.359Z,0
2022-08-12T02:51:26.027Z,0
2022-08-12T02:52:26.705Z,0
2022-08-12T02:53:27.445Z,0
2022-08-12T02:54:28.220Z,0
2022-08-12T02:55:34.326Z,0
2022-08-12T02:56:30.316Z,0
2022-08-12T02:57:31.025Z,0
2022-08-12T02:58:33.480Z,0
2022-08-12T03:00:04.210Z,0
2022-08-12T03:01:04.999Z,0
2022-08-12T03:02:05.571Z,0
2022-08-12T03:03:06.247Z,0
2022-08-12T03:04:06.890Z,0
2022-08-12T03:05:07.577Z,0
2022-08-12T03:06:08.257Z,0
2022-08-12T03:07:09.687Z,0
2022-08-12T03:08:12.237Z,0
2022-08-12T03:09:12.032Z,0
2022-08-12T03:10:15.841Z,0
2022-08-12T03:11:14.610Z,0
2022-08-12T03:12:20.048Z,0
2022-08-12T03:13:15.119Z,0
2022-08-12T03:14:15.788Z,0
2022-08-12T03:15:16.563Z,0
2022-08-12T03:16:17.264Z,0
2022-08-12T03:17:17.906Z,0
2022-08-12T03:18:26.101Z,0
2022-08-12T03:19:19.995Z,0
2022-08-12T03:20:22.649Z,0
2022-08-12T03:21:54.624Z,0
2022-08-12T03:22:22.257Z,0
2022-08-12T03:23:30.341Z,0
2022-08-12T03:24:23.544Z,0
2022-08-12T03:25:24.307Z,0
2022-08-12T03:26:25.703Z,0
2022-08-12T03:27:26.409Z,0
2022-08-12T03:28:27.098Z,0
2022-08-12T03:29:28.531Z,0
2022-08-12T03:30:29.184Z,0
2022-08-12T03:31:29.958Z,0
2022-08-12T03:32:36.208Z,0
2022-08-12T03:34:03.235Z,0
2022-08-12T03:35:04.176Z,0
2022-08-12T03:36:04.949Z,0
2022-08-12T03:37:05.698Z,0
2022-08-12T03:38:08.074Z,0
2022-08-12T03:39:07.724Z,0
2022-08-12T03:40:08.459Z,0
2022-08-12T03:41:09.038Z,0
2022-08-12T03:42:09.754Z,0
2022-08-12T03:43:11.859Z,0
2022-08-12T03:44:11.504Z,0
2022-08-12T03:45:12.180Z,0
2022-08-12T03:46:12.941Z,0
2022-08-12T03:47:13.743Z,0
2022-08-12T03:48:18.985Z,0
2022-08-12T03:49:16.253Z,0
2022-08-12T03:50:16.946Z,0
2022-08-12T03:51:17.697Z,0
2022-08-12T03:52:18.373Z,0
2022-08-12T03:53:19.077Z,0
2022-08-12T03:54:19.810Z,0
2022-08-12T03:55:20.465Z,0
2022-08-12T03:56:21.239Z,0
2022-08-12T03:57:22.619Z,0
2022-08-12T03:58:23.359Z,0
2022-08-12T03:59:25.069Z,0
2022-08-12T04:00:25.736Z,0
2022-08-12T04:01:27.623Z,0
2022-08-12T04:02:27.290Z,0
2022-08-12T04:03:28.727Z,4
2022-08-12T04:04:29.548Z,4
2022-08-12T04:05:54.490Z,0
2022-08-12T04:06:35.509Z,4
2022-08-12T04:08:02.432Z,0
2022-08-12T04:09:03.661Z,4
2022-08-12T04:10:04.366Z,4
2022-08-12T04:11:05.047Z,8
2022-08-12T04:12:05.815Z,8
2022-08-12T04:13:06.580Z,8
2022-08-12T04:14:07.309Z,8
2022-08-12T04:15:07.994Z,12
2022-08-12T04:16:08.650Z,12
2022-08-12T04:17:09.302Z,16
2022-08-12T04:18:10.007Z,16
2022-08-12T04:19:11.705Z,16
2022-08-12T04:20:12.434Z,20
2022-08-12T04:21:13.078Z,20
2022-08-12T04:22:13.790Z,24
2022-08-12T04:23:16.763Z,28
2022-08-12T04:24:15.377Z,32
2022-08-12T04:25:16.716Z,36
2022-08-12T04:26:17.380Z,40
2022-08-12T04:27:18.082Z,40
2022-08-12T04:28:18.847Z,48
2022-08-12T04:29:20.226Z,52
2022-08-12T04:30:32.593Z,56
2022-08-12T04:31:21.564Z,60
2022-08-12T04:32:22.313Z,68
2022-08-12T04:33:23.093Z,72
2022-08-12T04:34:23.867Z,76
2022-08-12T04:35:24.596Z,80
2022-08-12T04:36:25.272Z,84
2022-08-12T04:37:25.933Z,92
2022-08-12T04:38:26.693Z,96
2022-08-12T04:39:28.278Z,100
2022-08-12T04:40:29.073Z,108
2022-08-12T04:41:29.875Z,112
2022-08-12T04:42:30.726Z,124
2022-08-12T04:44:02.680Z,128
2022-08-12T04:45:02.804Z,136
2022-08-12T04:46:03.586Z,144
2022-08-12T04:47:05.202Z,144
2022-08-12T04:48:05.909Z,152
2022-08-12T04:49:06.678Z,160
2022-08-12T04:50:35.230Z,164
2022-08-12T04:51:08.947Z,172
2022-08-12T04:52:09.594Z,180
2022-08-12T04:53:10.333Z,184
2022-08-12T04:54:11.137Z,192
2022-08-12T04:55:12.178Z,196
2022-08-12T04:56:12.987Z,204
2022-08-12T04:57:14.195Z,208
2022-08-12T04:58:15.046Z,216
2022-08-12T04:59:16.278Z,224
2022-08-12T05:00:17.072Z,228
2022-08-12T05:01:17.903Z,236
2022-08-12T05:02:21.635Z,244
2022-08-12T05:03:19.253Z,252
2022-08-12T05:04:19.957Z,256
2022-08-12T05:05:20.741Z,260
2022-08-12T05:06:26.878Z,268
2022-08-12T05:07:22.867Z,272
2022-08-12T05:08:23.545Z,276
2022-08-12T05:09:25.239Z,288
2022-08-12T05:10:33.871Z,292
2022-08-12T05:11:26.824Z,304
2022-08-12T05:12:27.605Z,316
2022-08-12T05:13:28.306Z,316
2022-08-12T05:14:29.091Z,320
2022-08-12T05:15:29.842Z,320
2022-08-12T05:16:34.036Z,336
2022-08-12T05:18:19.153Z,344
2022-08-12T05:19:03.617Z,352
2022-08-12T05:20:05.181Z,356
2022-08-12T05:21:05.993Z,364
2022-08-12T05:22:06.776Z,368
2022-08-12T05:23:12.485Z,376
2022-08-12T05:24:08.072Z,384
2022-08-12T05:25:08.867Z,388
2022-08-12T05:26:09.659Z,396
2022-08-12T05:27:11.476Z,400
2022-08-12T05:28:12.145Z,408
2022-08-12T05:30:08.161Z,412
2022-08-12T05:30:14.133Z,420
2022-08-12T05:31:14.926Z,424
2022-08-12T05:32:15.712Z,432
2022-08-12T05:33:16.357Z,436
2022-08-12T05:34:17.081Z,440
2022-08-12T05:35:17.881Z,448
2022-08-12T05:36:18.705Z,456
2022-08-12T05:37:20.266Z,464
2022-08-12T05:38:20.934Z,468
2022-08-12T05:39:21.813Z,476
2022-08-12T05:40:23.166Z,480
2022-08-12T05:41:23.960Z,488
2022-08-12T05:42:41.104Z,488
2022-08-12T05:43:25.411Z,492
2022-08-12T05:44:26.078Z,500
2022-08-12T05:45:26.905Z,504
2022-08-12T05:46:27.700Z,512
2022-08-12T05:47:36.673Z,512
2022-08-12T05:48:30.056Z,524
2022-08-12T05:50:01.304Z,532
2022-08-12T05:51:02.687Z,532
2022-08-12T05:52:03.444Z,540
2022-08-12T05:53:04.188Z,544
2022-08-12T05:54:04.814Z,548
2022-08-12T05:55:05.583Z,552
2022-08-12T05:56:06.401Z,560
2022-08-12T05:57:07.221Z,560
2022-08-12T05:58:08.004Z,564
2022-08-12T05:59:08.676Z,572
2022-08-12T06:00:10.159Z,576
2022-08-12T06:02:09.598Z,580
2022-08-12T06:02:13.614Z,584
2022-08-12T06:03:13.498Z,588
2022-08-12T06:04:14.024Z,596
2022-08-12T06:05:15.256Z,600
2022-08-12T06:06:16.038Z,608
2022-08-12T06:08:00.076Z,608
2022-08-12T06:08:17.511Z,608
2022-08-12T06:09:18.171Z,612
2022-08-12T06:10:31.775Z,616
2022-08-12T06:11:20.430Z,616
2022-08-12T06:12:21.229Z,616
2022-08-12T06:13:27.981Z,624
2022-08-12T06:14:22.664Z,624
2022-08-12T06:15:23.379Z,636
2022-08-12T06:16:24.148Z,660
2022-08-12T06:17:24.934Z,672
2022-08-12T06:18:29.621Z,660
2022-08-12T06:20:27.945Z,644
2022-08-12T06:20:34.421Z,644
2022-08-12T06:21:28.559Z,644
2022-08-12T06:22:29.204Z,644
2022-08-12T06:23:30.574Z,648
2022-08-12T06:25:01.392Z,652
2022-08-12T06:26:02.230Z,652
2022-08-12T06:27:03.003Z,652
2022-08-12T06:28:07.300Z,652
2022-08-12T06:29:05.460Z,656
2022-08-12T06:30:12.541Z,660
2022-08-12T06:31:25.335Z,660
2022-08-12T06:32:08.352Z,664
2022-08-12T06:35:25.467Z,664
2022-08-12T06:35:26.488Z,668
2022-08-12T06:36:11.500Z,668
2022-08-12T06:37:12.384Z,668
2022-08-12T06:38:13.059Z,672
2022-08-12T06:39:14.695Z,672
2022-08-12T06:40:15.218Z,676
2022-08-12T06:41:15.972Z,676
2022-08-12T06:42:32.165Z,676
2022-08-12T06:43:17.564Z,680
2022-08-12T06:44:18.359Z,680
2022-08-12T06:45:18.997Z,680
2022-08-12T06:46:19.697Z,684
2022-08-12T06:47:20.485Z,684
2022-08-12T06:48:21.268Z,684
2022-08-12T06:49:22.082Z,688
2022-08-12T06:50:23.552Z,684
2022-08-12T06:51:25.061Z,688
2022-08-12T06:52:25.840Z,688
2022-08-12T06:53:26.672Z,688
2022-08-12T06:54:31.087Z,692
2022-08-12T06:55:28.118Z,692
2022-08-12T06:56:46.306Z,696
2022-08-12T06:58:05.311Z,696
2022-08-12T06:59:02.083Z,696
2022-08-12T07:00:03.787Z,700
2022-08-12T07:01:04.527Z,696
2022-08-12T07:02:05.161Z,700
2022-08-12T07:03:16.438Z,700
2022-08-12T07:04:35.293Z,700
2022-08-12T07:05:08.315Z,700
2022-08-12T07:06:09.006Z,700
2022-08-12T07:07:10.053Z,700
2022-08-12T07:08:10.576Z,704
2022-08-12T07:09:15.895Z,704
2022-08-12T07:10:13.281Z,708
2022-08-12T07:11:14.030Z,708
2022-08-12T07:12:14.671Z,708
2022-08-12T07:13:15.454Z,712
2022-08-12T07:14:16.237Z,712
2022-08-12T07:15:17.043Z,712
2022-08-12T07:16:17.691Z,712
2022-08-12T07:17:18.368Z,712
2022-08-12T07:18:19.143Z,712
2022-08-12T07:19:19.953Z,712
2022-08-12T07:20:50.274Z,712
2022-08-12T07:21:21.953Z,712
2022-08-12T07:22:22.639Z,716
2022-08-12T07:23:23.398Z,716
2022-08-12T07:24:24.174Z,716
2022-08-12T07:25:24.975Z,712
2022-08-12T07:26:25.650Z,716
2022-08-12T07:27:26.361Z,716
2022-08-12T07:28:27.788Z,716
2022-08-12T07:30:03.576Z,716
2022-08-12T07:30:30.810Z,716
2022-08-12T07:32:01.865Z,716
2022-08-12T07:33:02.576Z,720
2022-08-12T07:34:03.416Z,716
2022-08-12T07:35:04.683Z,720
2022-08-12T07:36:05.496Z,716
2022-08-12T07:37:06.204Z,720
2022-08-12T07:38:06.924Z,716
2022-08-12T07:39:07.714Z,720
2022-08-12T07:40:08.529Z,720
2022-08-12T07:41:15.687Z,724
2022-08-12T07:42:10.904Z,720
2022-08-12T07:43:11.667Z,720
2022-08-12T07:44:12.438Z,720
2022-08-12T07:45:13.234Z,724
2022-08-12T07:46:14.015Z,720
2022-08-12T07:47:14.713Z,720
2022-08-12T07:48:15.453Z,720
2022-08-12T07:49:16.144Z,720
2022-08-12T07:50:21.491Z,720
2022-08-12T07:51:25.152Z,720
2022-08-12T07:52:19.392Z,720
2022-08-12T07:53:20.125Z,720
2022-08-12T07:54:20.822Z,720
2022-08-12T07:55:21.638Z,720
2022-08-12T07:56:22.473Z,720
2022-08-12T07:57:23.216Z,720
2022-08-12T07:58:24.588Z,720
2022-08-12T07:59:25.283Z,720
2022-08-12T08:00:26.779Z,724
2022-08-12T08:01:27.657Z,720
2022-08-12T08:02:28.334Z,720
2022-08-12T08:03:29.440Z,720
2022-08-12T08:05:00.619Z,724
2022-08-12T08:06:01.354Z,720
2022-08-12T08:07:02.207Z,720
2022-08-12T08:08:03.008Z,720
2022-08-12T08:09:03.690Z,720
2022-08-12T08:10:04.475Z,720
2022-08-12T08:11:06.187Z,720
2022-08-12T08:12:07.082Z,720
2022-08-12T08:13:07.828Z,720
2022-08-12T08:14:08.494Z,720
2022-08-12T08:15:09.220Z,720
2022-08-12T08:16:10.026Z,716
2022-08-12T08:17:10.853Z,720
2022-08-12T08:18:13.232Z,716
2022-08-12T08:19:12.337Z,716
2022-08-12T08:20:13.016Z,716
2022-08-12T08:21:14.654Z,716
2022-08-12T08:22:15.463Z,716
2022-08-12T08:23:16.327Z,716
2022-08-12T08:24:17.599Z,716
2022-08-12T08:25:20.461Z,716
2022-08-12T08:26:19.071Z,716
2022-08-12T08:27:19.882Z,716
2022-08-12T08:28:21.271Z,716
2022-08-12T08:29:21.966Z,716
2022-08-12T08:30:22.627Z,716
2022-08-12T08:31:24.180Z,716
2022-08-12T08:32:24.990Z,716
2022-08-12T08:34:09.533Z,716
2022-08-12T08:34:49.288Z,716
2022-08-12T08:35:38.779Z,716
2022-08-12T08:36:59.746Z,716
2022-08-12T08:38:00.558Z,716
2022-08-12T08:39:02.261Z,684
2022-08-12T08:40:02.840Z,712
2022-08-12T08:41:04.171Z,712
2022-08-12T08:42:19.375Z,716
2022-08-12T08:43:05.830Z,716
2022-08-12T08:44:06.460Z,716
2022-08-12T08:45:07.126Z,716
2022-08-12T08:46:07.818Z,716
2022-08-12T08:47:08.596Z,712
2022-08-12T08:48:09.418Z,716
2022-08-12T08:49:10.113Z,716
2022-08-12T08:50:11.747Z,716
2022-08-12T08:51:13.317Z,716
2022-08-12T08:52:39.668Z,716
2022-08-12T08:53:14.899Z,716
2022-08-12T08:54:15.523Z,716
2022-08-12T08:55:19.704Z,716
2022-08-12T08:56:16.877Z,716
2022-08-12T08:57:18.249Z,720
2022-08-12T08:58:18.939Z,716
2022-08-12T08:59:19.606Z,720
2022-08-12T09:00:20.280Z,720
2022-08-12T09:01:21.753Z,720
2022-08-12T09:02:22.419Z,724
2022-08-12T09:04:21.322Z,720
2022-08-12T09:05:13.106Z,724
2022-08-12T09:05:25.820Z,720
2022-08-12T09:07:51.023Z,724
2022-08-12T09:08:26.802Z,720
2022-08-12T09:10:31.236Z,724
2022-08-12T09:12:10.866Z,724
2022-08-12T09:13:00.860Z,724
2022-08-12T09:14:11.931Z,724
2022-08-12T09:15:01.518Z,724
2022-08-12T09:16:02.229Z,728
2022-08-12T09:17:02.916Z,728
2022-08-12T09:18:03.645Z,728
2022-08-12T09:19:04.390Z,728
2022-08-12T09:20:05.066Z,732
2022-08-12T09:21:06.756Z,732
2022-08-12T09:22:07.474Z,732
2022-08-12T09:24:10.452Z,732
2022-08-12T09:25:09.580Z,732
2022-08-12T09:26:11.231Z,728
2022-08-12T09:27:12.174Z,732
2022-08-12T09:28:12.739Z,728
2022-08-12T09:29:13.462Z,732
2022-08-12T09:30:14.371Z,732
2022-08-12T09:32:04.310Z,736
2022-08-12T09:32:56.635Z,736
2022-08-12T09:33:18.996Z,736
2022-08-12T09:34:31.065Z,736
2022-08-12T09:35:22.301Z,740
2022-08-12T09:36:30.995Z,740
2022-08-12T09:37:22.366Z,740
2022-08-12T09:38:20.972Z,740
2022-08-12T09:40:03.475Z,740
2022-08-12T09:41:02.537Z,740
2022-08-12T09:42:09.826Z,744
2022-08-12T09:42:34.387Z,740
2022-08-12T09:43:26.313Z,740
2022-08-12T09:44:39.579Z,744
2022-08-12T09:46:20.283Z,744
2022-08-12T09:46:58.742Z,744
2022-08-12T09:48:00.302Z,748
2022-08-12T09:49:00.169Z,744
2022-08-12T09:50:00.863Z,748
2022-08-12T09:51:02.265Z,744
2022-08-12T09:52:03.000Z,748
2022-08-12T09:53:04.184Z,748
2022-08-12T09:54:08.966Z,752
2022-08-12T09:55:05.003Z,752
2022-08-12T09:56:58.850Z,752
2022-08-12T09:58:07.406Z,756
2022-08-12T09:58:57.395Z,760
2022-08-12T09:59:08.719Z,760
2022-08-12T10:00:13.525Z,756
2022-08-12T10:01:15.286Z,760
2022-08-12T10:02:45.267Z,760
2022-08-12T10:03:31.481Z,756
2022-08-12T10:04:14.037Z,760
2022-08-12T10:05:17.832Z,760
2022-08-12T10:06:27.638Z,764
2022-08-12T10:07:24.937Z,768
2022-08-12T10:08:16.739Z,772
2022-08-12T10:09:17.430Z,772
2022-08-12T10:10:22.916Z,772
2022-08-12T10:11:20.360Z,780
2022-08-12T10:12:31.153Z,780
2022-08-12T10:13:34.441Z,784
2022-08-12T10:14:21.963Z,784
2022-08-12T10:16:01.622Z,784
2022-08-12T10:16:23.923Z,792
2022-08-12T10:17:24.584Z,792
2022-08-12T10:18:26.447Z,796
2022-08-12T10:19:36.181Z,800
2022-08-12T10:20:26.573Z,804
2022-08-12T10:21:35.455Z,808
2022-08-12T10:22:58.758Z,808
2022-08-12T10:23:59.442Z,812
2022-08-12T10:25:00.130Z,812
2022-08-12T10:26:35.823Z,816
2022-08-12T10:27:05.996Z,816
2022-08-12T10:28:04.232Z,820
2022-08-12T10:30:01.667Z,820
2022-08-12T10:30:40.260Z,820
2022-08-12T10:31:05.807Z,820
2022-08-12T10:32:21.408Z,820
2022-08-12T10:33:18.215Z,820
2022-08-12T10:34:23.343Z,820
2022-08-12T10:35:09.171Z,824
2022-08-12T10:36:10.627Z,824
2022-08-12T10:37:23.681Z,828
2022-08-12T10:38:35.547Z,832
2022-08-12T10:40:00.095Z,832
2022-08-12T10:40:19.863Z,832
2022-08-12T10:41:19.036Z,836
2022-08-12T10:42:16.631Z,836
2022-08-12T10:43:17.291Z,836
2022-08-12T10:44:17.916Z,840
2022-08-12T10:45:18.561Z,836
2022-08-12T10:46:19.297Z,840
2022-08-12T10:47:26.241Z,836
2022-08-12T10:48:26.975Z,844
2022-08-12T10:50:03.009Z,844
2022-08-12T10:50:35.813Z,848
2022-08-12T10:52:04.328Z,848
2022-08-12T10:52:34.807Z,848
2022-08-12T10:53:44.242Z,844
2022-08-12T10:54:26.997Z,848
2022-08-12T10:55:27.481Z,848
2022-08-12T10:56:58.439Z,852
2022-08-12T10:58:15.094Z,856
2022-08-12T10:58:59.712Z,856
2022-08-12T11:00:31.262Z,856
2022-08-12T11:01:48.832Z,856
2022-08-12T11:04:19.435Z,856
2022-08-12T11:04:26.006Z,856
2022-08-12T11:04:27.797Z,860
2022-08-12T11:07:06.648Z,860
2022-08-12T11:07:09.834Z,864
2022-08-12T11:08:33.822Z,864
2022-08-12T11:08:37.189Z,864
2022-08-12T11:09:11.366Z,864
2022-08-12T11:10:08.992Z,864
2022-08-12T11:11:13.946Z,868
2022-08-12T11:12:56.078Z,872
2022-08-12T11:13:12.350Z,872
2022-08-12T11:14:50.457Z,876
2022-08-12T11:15:18.683Z,428
2022-08-12T11:16:21.654Z,432
2022-08-12T11:17:43.073Z,428
2022-08-12T11:18:18.085Z,428
2022-08-12T11:19:16.419Z,428
2022-08-12T11:20:18.140Z,428
2022-08-12T11:21:18.793Z,432
2022-08-12T11:22:33.382Z,428
2022-08-12T11:23:25.049Z,428
2022-08-12T11:24:32.018Z,428
2022-08-12T11:25:22.107Z,428
2022-08-12T11:26:22.788Z,428
2022-08-12T11:27:23.458Z,428
2022-08-12T11:28:33.862Z,428
2022-08-12T11:29:25.292Z,424
2022-08-12T11:30:31.582Z,428
2022-08-12T11:31:27.132Z,428
2022-08-12T11:32:59.011Z,432
2022-08-12T11:34:06.140Z,428
2022-08-12T11:35:00.314Z,432
2022-08-12T11:36:01.583Z,432
2022-08-12T11:37:04.777Z,432
2022-08-12T11:38:03.139Z,432
2022-08-12T11:39:05.114Z,428
2022-08-12T11:40:04.185Z,432
2022-08-12T11:41:04.833Z,432
2022-08-12T11:42:06.248Z,436
2022-08-12T11:43:18.846Z,440
2022-08-12T11:44:37.309Z,440
2022-08-12T11:45:10.318Z,444
2022-08-12T11:46:09.746Z,448
2022-08-12T11:47:09.736Z,452
2022-08-12T11:48:10.296Z,456
2022-08-12T11:49:10.931Z,456
2022-08-12T11:50:19.141Z,460
2022-08-12T11:51:12.282Z,468
2022-08-12T11:52:17.224Z,472
2022-08-12T11:53:59.416Z,472
2022-08-12T11:54:14.943Z,480
2022-08-12T11:55:15.641Z,480
2022-08-12T11:56:16.273Z,484
2022-08-12T11:58:48.891Z,492
2022-08-12T11:58:51.171Z,484
2022-08-12T12:01:57.743Z,500
2022-08-12T12:02:03.412Z,508
2022-08-12T12:02:21.770Z,516
2022-08-12T12:03:23.177Z,520
2022-08-12T12:04:29.119Z,524
2022-08-12T12:05:28.570Z,532
2022-08-12T12:06:24.308Z,536
2022-08-12T12:08:36.135Z,540
2022-08-12T12:08:37.162Z,552
2022-08-12T12:09:57.556Z,560
2022-08-12T12:10:59.345Z,564
2022-08-12T12:11:59.814Z,572
2022-08-12T12:13:00.605Z,580
2022-08-12T12:14:07.577Z,584
2022-08-12T12:15:06.867Z,588
2022-08-12T12:16:02.912Z,596
2022-08-12T12:17:04.273Z,600
2022-08-12T12:18:04.994Z,604
2022-08-12T12:19:05.770Z,612
2022-08-12T12:20:06.590Z,616
2022-08-12T12:21:08.382Z,620
2022-08-12T12:22:08.783Z,628
2022-08-12T12:23:28.759Z,632
2022-08-12T12:24:10.365Z,640
2022-08-12T12:25:13.519Z,644
2022-08-12T12:26:35.435Z,648
2022-08-12T12:27:12.736Z,656
2022-08-12T12:28:37.439Z,660
2022-08-12T12:30:17.771Z,664
2022-08-12T12:30:25.448Z,668
2022-08-12T12:32:10.414Z,676
2022-08-12T12:32:18.591Z,680
2022-08-12T12:33:18.604Z,684
2022-08-12T12:34:30.411Z,692
2022-08-12T12:36:06.494Z,700
2022-08-12T12:36:26.453Z,700
2022-08-12T12:37:59.092Z,712
2022-08-12T12:38:25.360Z,716
2022-08-12T12:39:23.795Z,724
2022-08-12T12:40:29.943Z,728
2022-08-12T12:42:41.571Z,740
2022-08-12T12:42:43.678Z,748
2022-08-12T12:44:04.384Z,760
2022-08-12T12:44:59.192Z,772
2022-08-12T12:45:59.886Z,780
2022-08-12T12:47:00.922Z,792
2022-08-12T12:48:01.246Z,792
2022-08-12T12:49:02.059Z,804
2022-08-12T12:50:06.140Z,816
2022-08-12T12:51:04.055Z,820
2022-08-12T12:52:19.369Z,828
2022-08-12T12:53:05.967Z,832
2022-08-12T12:54:09.914Z,840
2022-08-12T12:55:07.598Z,848
2022-08-12T12:56:08.310Z,852
2022-08-12T12:57:08.967Z,860
2022-08-12T12:58:09.665Z,868
2022-08-12T12:59:56.176Z,880
2022-08-12T13:00:12.315Z,884
2022-08-12T13:01:26.959Z,896
2022-08-12T13:02:14.323Z,904
2022-08-12T13:03:19.257Z,912
2022-08-12T13:04:15.715Z,924
2022-08-12T13:05:17.378Z,936
2022-08-12T13:06:19.049Z,940
2022-08-12T13:07:19.311Z,948
2022-08-12T13:08:20.045Z,956
2022-08-12T13:09:20.829Z,964
2022-08-12T13:10:21.654Z,972
2022-08-12T13:11:23.161Z,980
2022-08-12T13:12:23.839Z,992
2022-08-12T13:14:10.592Z,1008
2022-08-12T13:14:56.684Z,1016
2022-08-12T13:15:59.238Z,1028
2022-08-12T13:16:59.031Z,1036
2022-08-12T13:18:03.200Z,1048
2022-08-12T13:19:01.732Z,1060
2022-08-12T13:20:01.408Z,1068
2022-08-12T13:21:02.711Z,1072
2022-08-12T13:22:03.360Z,1084
2022-08-12T13:23:04.660Z,1092
2022-08-12T13:24:10.167Z,1100
2022-08-12T13:25:06.224Z,1108
2022-08-12T13:26:07.110Z,1116
2022-08-12T13:27:07.664Z,1128
2022-08-12T13:28:08.384Z,1140
2022-08-12T13:29:11.680Z,1152
2022-08-12T13:30:11.557Z,1164
2022-08-12T13:31:10.760Z,1172
2022-08-12T13:32:31.057Z,1184
2022-08-12T13:33:17.728Z,1196
2022-08-12T13:34:32.316Z,1204
2022-08-12T13:35:20.217Z,1208
2022-08-12T13:36:18.190Z,1224
2022-08-12T13:37:16.323Z,1240
2022-08-12T13:38:26.604Z,1256
2022-08-12T13:39:17.969Z,1276
2022-08-12T13:40:18.644Z,1304
2022-08-12T13:41:19.397Z,1328
2022-08-12T13:42:20.815Z,1360
2022-08-12T13:43:41.231Z,1408
2022-08-12T13:44:22.270Z,1552
2022-08-12T13:45:23.044Z,2904
2022-08-12T13:46:24.714Z,6500
2022-08-12T13:47:25.749Z,9120
2022-08-12T13:48:56.810Z,9624
2022-08-12T13:49:57.607Z,9764
2022-08-12T13:50:59.374Z,9552
2022-08-12T13:52:00.126Z,8876
2022-08-12T13:53:23.131Z,8896
2022-08-12T13:54:05.022Z,8676
2022-08-12T13:55:06.103Z,9000
2022-08-12T13:56:04.010Z,9420
2022-08-12T13:57:10.963Z,9576
2022-08-12T13:58:05.990Z,9724
2022-08-12T13:59:08.044Z,9636
2022-08-12T14:00:07.497Z,9396
2022-08-12T14:01:09.118Z,9888
2022-08-12T14:02:08.997Z,9920
2022-08-12T14:03:10.609Z,10180
2022-08-12T14:04:11.355Z,10320
2022-08-12T14:05:37.844Z,10376
2022-08-12T14:06:15.584Z,10724
2022-08-12T14:07:13.244Z,11064
2022-08-12T14:08:13.872Z,11456
2022-08-12T14:09:17.241Z,11452
2022-08-12T14:10:16.512Z,11528
2022-08-12T14:11:16.157Z,11376
2022-08-12T14:12:16.888Z,11396
2022-08-12T14:14:02.728Z,11224
2022-08-12T14:14:18.919Z,11636
2022-08-12T14:15:19.702Z,12028
2022-08-12T14:16:48.739Z,12072
2022-08-12T14:17:21.219Z,12100
2022-08-12T14:18:21.874Z,11488
2022-08-12T14:19:25.157Z,11148
2022-08-12T14:20:23.361Z,10968
2022-08-12T14:21:24.200Z,10920
2022-08-12T14:22:26.145Z,12028
2022-08-12T14:24:04.902Z,11772
2022-08-12T14:24:57.814Z,11044
2022-08-12T14:25:58.644Z,10776
2022-08-12T14:27:01.866Z,11072
2022-08-12T14:28:03.888Z,11516
2022-08-12T14:29:02.083Z,11436
2022-08-12T14:30:05.904Z,11368
2022-08-12T14:31:02.284Z,11244